sensor_id;sensor_type;location;lat;lon;timestamp;temperature;humidity
24384;DHT22;12504;52.870;8.798;2022-07-23T00:00:16;13.30;99.90
24384;DHT22;12504;52.870;8.798;2022-07-23T00:02:43;13.30;99.90
24384;DHT22;12504;52.870;8.798;2022-07-23T00:05:09;13.20;99.90
24384;DHT22;12504;52.870;8.798;2022-07-23T00:07:35;13.20;99.90
24384;DHT22;12504;52.870;8.798;2022-07-23T00:10:01;13.20;99.90
24384;DHT22;12504;52.870;8.798;2022-07-23T00:12:27;13.10;99.90
24384;DHT22;12504;52.870;8.798;2022-07-23T00:14:53;13.00;99.90
24384;DHT22;12504;52.870;8.798;2022-07-23T00:17:18;13.00;99.90
24384;DHT22;12504;52.870;8.798;2022-07-23T00:19:44;13.00;99.90
24384;DHT22;12504;52.870;8.798;2022-07-23T00:22:10;13.00;99.90
24384;DHT22;12504;52.870;8.798;2022-07-23T00:24:36;13.00;99.90
24384;DHT22;12504;52.870;8.798;2022-07-23T00:27:01;13.00;99.90
24384;DHT22;12504;52.870;8.798;2022-07-23T00:29:27;13.00;99.90
24384;DHT22;12504;52.870;8.798;2022-07-23T00:31:53;13.10;99.90
24384;DHT22;12504;52.870;8.798;2022-07-23T00:34:18;13.10;99.90
24384;DHT22;12504;52.870;8.798;2022-07-23T00:36:44;13.00;99.90
24384;DHT22;12504;52.870;8.798;2022-07-23T00:39:09;13.00;99.90
24384;DHT22;12504;52.870;8.798;2022-07-23T00:41:35;13.00;99.90
24384;DHT22;12504;52.870;8.798;2022-07-23T00:44:23;13.10;99.90
24384;DHT22;12504;52.870;8.798;2022-07-23T00:46:54;13.10;99.90
24384;DHT22;12504;52.870;8.798;2022-07-23T00:49:22;13.10;99.90
24384;DHT22;12504;52.870;8.798;2022-07-23T00:51:49;13.00;99.90
24384;DHT22;12504;52.870;8.798;2022-07-23T00:54:16;13.00;99.90
24384;DHT22;12504;52.870;8.798;2022-07-23T00:56:44;13.00;99.90
24384;DHT22;12504;52.870;8.798;2022-07-23T00:59:10;12.90;99.90
24384;DHT22;12504;52.870;8.798;2022-07-23T01:01:36;12.90;99.90
24384;DHT22;12504;52.870;8.798;2022-07-23T01:04:02;12.90;99.90
24384;DHT22;12504;52.870;8.798;2022-07-23T01:06:28;12.80;99.90
24384;DHT22;12504;52.870;8.798;2022-07-23T01:08:55;12.80;99.90
24384;DHT22;12504;52.870;8.798;2022-07-23T01:11:23;12.80;99.90
24384;DHT22;12504;52.870;8.798;2022-07-23T01:13:49;12.80;99.90
24384;DHT22;12504;52.870;8.798;2022-07-23T01:16:15;12.80;99.90
24384;DHT22;12504;52.870;8.798;2022-07-23T01:18:40;12.80;99.90
24384;DHT22;12504;52.870;8.798;2022-07-23T01:21:06;12.80;99.90
24384;DHT22;12504;52.870;8.798;2022-07-23T01:23:34;12.80;99.90
24384;DHT22;12504;52.870;8.798;2022-07-23T01:26:00;12.80;99.90
24384;DHT22;12504;52.870;8.798;2022-07-23T01:28:27;12.80;99.90
24384;DHT22;12504;52.870;8.798;2022-07-23T01:30:54;12.80;99.90
24384;DHT22;12504;52.870;8.798;2022-07-23T01:33:20;12.90;99.90
24384;DHT22;12504;52.870;8.798;2022-07-23T01:35:45;12.90;99.90
24384;DHT22;12504;52.870;8.798;2022-07-23T01:38:17;13.00;99.90
24384;DHT22;12504;52.870;8.798;2022-07-23T01:40:43;13.00;99.90
24384;DHT22;12504;52.870;8.798;2022-07-23T01:43:09;13.10;99.90
24384;DHT22;12504;52.870;8.798;2022-07-23T01:45:36;13.10;99.90
24384;DHT22;12504;52.870;8.798;2022-07-23T01:48:02;13.10;99.90
24384;DHT22;12504;52.870;8.798;2022-07-23T01:50:30;13.10;99.90
24384;DHT22;12504;52.870;8.798;2022-07-23T01:53:08;13.10;99.90
24384;DHT22;12504;52.870;8.798;2022-07-23T01:55:35;13.20;99.90
24384;DHT22;12504;52.870;8.798;2022-07-23T01:58:02;13.20;99.90
24384;DHT22;12504;52.870;8.798;2022-07-23T02:00:29;13.10;99.90
24384;DHT22;12504;52.870;8.798;2022-07-23T02:02:54;13.20;99.90
24384;DHT22;12504;52.870;8.798;2022-07-23T02:05:21;13.20;99.90
24384;DHT22;12504;52.870;8.798;2022-07-23T02:07:47;13.20;99.90
24384;DHT22;12504;52.870;8.798;2022-07-23T02:10:13;13.30;99.90
24384;DHT22;12504;52.870;8.798;2022-07-23T02:12:38;13.20;99.90
24384;DHT22;12504;52.870;8.798;2022-07-23T02:15:04;13.30;99.90
24384;DHT22;12504;52.870;8.798;2022-07-23T02:17:30;13.30;99.90
24384;DHT22;12504;52.870;8.798;2022-07-23T02:19:56;13.40;99.90
24384;DHT22;12504;52.870;8.798;2022-07-23T02:22:22;13.30;99.90
24384;DHT22;12504;52.870;8.798;2022-07-23T02:24:48;13.40;99.90
24384;DHT22;12504;52.870;8.798;2022-07-23T02:27:14;13.40;99.90
24384;DHT22;12504;52.870;8.798;2022-07-23T02:29:40;13.40;99.90
24384;DHT22;12504;52.870;8.798;2022-07-23T02:32:06;13.30;99.90
24384;DHT22;12504;52.870;8.798;2022-07-23T02:34:31;13.30;99.90
24384;DHT22;12504;52.870;8.798;2022-07-23T02:36:57;13.30;99.90
24384;DHT22;12504;52.870;8.798;2022-07-23T02:39:24;13.30;99.90
24384;DHT22;12504;52.870;8.798;2022-07-23T02:41:51;13.30;99.90
24384;DHT22;12504;52.870;8.798;2022-07-23T02:44:17;13.30;99.90
24384;DHT22;12504;52.870;8.798;2022-07-23T02:46:46;13.40;99.90
24384;DHT22;12504;52.870;8.798;2022-07-23T02:49:12;13.30;99.90
24384;DHT22;12504;52.870;8.798;2022-07-23T02:51:38;13.40;99.90
24384;DHT22;12504;52.870;8.798;2022-07-23T02:54:05;13.40;99.90
24384;DHT22;12504;52.870;8.798;2022-07-23T02:56:31;13.40;99.90
24384;DHT22;12504;52.870;8.798;2022-07-23T02:58:57;13.30;99.90
24384;DHT22;12504;52.870;8.798;2022-07-23T03:01:23;13.30;99.90
24384;DHT22;12504;52.870;8.798;2022-07-23T03:03:49;13.30;99.90
24384;DHT22;12504;52.870;8.798;2022-07-23T03:06:14;13.30;99.90
24384;DHT22;12504;52.870;8.798;2022-07-23T03:08:40;13.30;99.90
24384;DHT22;12504;52.870;8.798;2022-07-23T03:11:06;13.40;99.90
24384;DHT22;12504;52.870;8.798;2022-07-23T03:13:38;13.30;99.90
24384;DHT22;12504;52.870;8.798;2022-07-23T03:16:04;13.30;99.90
24384;DHT22;12504;52.870;8.798;2022-07-23T03:18:30;13.20;99.90
24384;DHT22;12504;52.870;8.798;2022-07-23T03:20:56;13.20;99.90
24384;DHT22;12504;52.870;8.798;2022-07-23T03:23:22;13.20;99.90
24384;DHT22;12504;52.870;8.798;2022-07-23T03:25:47;13.10;99.90
24384;DHT22;12504;52.870;8.798;2022-07-23T03:28:15;13.10;99.90
24384;DHT22;12504;52.870;8.798;2022-07-23T03:30:45;13.00;99.90
24384;DHT22;12504;52.870;8.798;2022-07-23T03:33:12;13.10;99.90
24384;DHT22;12504;52.870;8.798;2022-07-23T03:35:38;13.00;99.90
24384;DHT22;12504;52.870;8.798;2022-07-23T03:38:16;13.00;99.90
24384;DHT22;12504;52.870;8.798;2022-07-23T03:40:42;12.90;99.90
24384;DHT22;12504;52.870;8.798;2022-07-23T03:43:08;12.90;99.90
24384;DHT22;12504;52.870;8.798;2022-07-23T03:45:33;12.80;99.90
24384;DHT22;12504;52.870;8.798;2022-07-23T03:47:59;12.70;99.90
24384;DHT22;12504;52.870;8.798;2022-07-23T03:50:25;12.70;99.90
24384;DHT22;12504;52.870;8.798;2022-07-23T03:52:52;12.60;99.90
24384;DHT22;12504;52.870;8.798;2022-07-23T03:55:19;12.60;99.90
24384;DHT22;12504;52.870;8.798;2022-07-23T03:57:45;12.60;99.90
24384;DHT22;12504;52.870;8.798;2022-07-23T04:00:12;12.60;99.90
24384;DHT22;12504;52.870;8.798;2022-07-23T04:02:42;12.60;99.90
24384;DHT22;12504;52.870;8.798;2022-07-23T04:05:10;12.50;99.90
24384;DHT22;12504;52.870;8.798;2022-07-23T04:07:36;12.40;99.90
24384;DHT22;12504;52.870;8.798;2022-07-23T04:10:02;12.50;99.90
24384;DHT22;12504;52.870;8.798;2022-07-23T04:12:28;12.50;99.90
24384;DHT22;12504;52.870;8.798;2022-07-23T04:14:54;12.50;99.90
24384;DHT22;12504;52.870;8.798;2022-07-23T04:17:20;12.50;99.90
24384;DHT22;12504;52.870;8.798;2022-07-23T04:19:46;12.40;99.90
24384;DHT22;12504;52.870;8.798;2022-07-23T04:22:16;12.40;99.90
24384;DHT22;12504;52.870;8.798;2022-07-23T04:24:41;12.40;99.90
24384;DHT22;12504;52.870;8.798;2022-07-23T04:27:08;12.40;99.90
24384;DHT22;12504;52.870;8.798;2022-07-23T04:29:34;12.40;99.90
24384;DHT22;12504;52.870;8.798;2022-07-23T04:32:00;12.40;99.90
24384;DHT22;12504;52.870;8.798;2022-07-23T04:34:26;12.50;99.90
24384;DHT22;12504;52.870;8.798;2022-07-23T04:36:53;12.60;99.90
24384;DHT22;12504;52.870;8.798;2022-07-23T04:39:19;12.60;99.90
24384;DHT22;12504;52.870;8.798;2022-07-23T04:41:45;12.70;99.90
24384;DHT22;12504;52.870;8.798;2022-07-23T04:44:11;12.80;99.90
24384;DHT22;12504;52.870;8.798;2022-07-23T04:46:37;12.90;99.90
24384;DHT22;12504;52.870;8.798;2022-07-23T04:49:05;13.00;99.90
24384;DHT22;12504;52.870;8.798;2022-07-23T04:51:31;13.10;99.90
24384;DHT22;12504;52.870;8.798;2022-07-23T04:53:57;13.20;99.90
24384;DHT22;12504;52.870;8.798;2022-07-23T04:56:22;13.30;99.90
24384;DHT22;12504;52.870;8.798;2022-07-23T04:58:48;13.40;99.90
24384;DHT22;12504;52.870;8.798;2022-07-23T05:01:14;13.50;99.90
24384;DHT22;12504;52.870;8.798;2022-07-23T05:03:40;13.60;99.90
24384;DHT22;12504;52.870;8.798;2022-07-23T05:06:05;13.70;99.90
24384;DHT22;12504;52.870;8.798;2022-07-23T05:08:31;13.80;99.90
24384;DHT22;12504;52.870;8.798;2022-07-23T05:10:58;13.90;99.90
24384;DHT22;12504;52.870;8.798;2022-07-23T05:13:24;13.80;99.90
24384;DHT22;12504;52.870;8.798;2022-07-23T05:15:52;13.80;99.90
24384;DHT22;12504;52.870;8.798;2022-07-23T05:18:17;13.80;99.90
24384;DHT22;12504;52.870;8.798;2022-07-23T05:20:43;13.80;99.90
24384;DHT22;12504;52.870;8.798;2022-07-23T05:23:12;13.80;99.90
24384;DHT22;12504;52.870;8.798;2022-07-23T05:25:39;13.60;99.90
24384;DHT22;12504;52.870;8.798;2022-07-23T05:28:06;13.60;99.90
24384;DHT22;12504;52.870;8.798;2022-07-23T05:30:31;13.50;99.90
24384;DHT22;12504;52.870;8.798;2022-07-23T05:33:00;13.50;99.90
24384;DHT22;12504;52.870;8.798;2022-07-23T05:35:26;13.70;99.90
24384;DHT22;12504;52.870;8.798;2022-07-23T05:38:11;13.80;99.90
24384;DHT22;12504;52.870;8.798;2022-07-23T05:40:37;13.80;99.90
24384;DHT22;12504;52.870;8.798;2022-07-23T05:43:03;14.00;99.90
24384;DHT22;12504;52.870;8.798;2022-07-23T05:45:30;14.00;99.90
24384;DHT22;12504;52.870;8.798;2022-07-23T05:47:56;14.10;99.90
24384;DHT22;12504;52.870;8.798;2022-07-23T05:50:27;14.20;99.90
24384;DHT22;12504;52.870;8.798;2022-07-23T05:53:00;14.30;99.90
24384;DHT22;12504;52.870;8.798;2022-07-23T05:55:52;14.40;99.90
24384;DHT22;12504;52.870;8.798;2022-07-23T05:58:18;14.50;99.90
24384;DHT22;12504;52.870;8.798;2022-07-23T06:00:44;14.60;99.90
24384;DHT22;12504;52.870;8.798;2022-07-23T06:03:10;14.70;99.90
24384;DHT22;12504;52.870;8.798;2022-07-23T06:05:36;14.70;99.90
24384;DHT22;12504;52.870;8.798;2022-07-23T06:08:02;14.80;99.90
24384;DHT22;12504;52.870;8.798;2022-07-23T06:10:28;14.90;99.90
24384;DHT22;12504;52.870;8.798;2022-07-23T06:12:55;15.00;99.90
24384;DHT22;12504;52.870;8.798;2022-07-23T06:15:20;15.30;99.90
24384;DHT22;12504;52.870;8.798;2022-07-23T06:17:46;15.30;99.90
24384;DHT22;12504;52.870;8.798;2022-07-23T06:20:12;15.50;99.90
24384;DHT22;12504;52.870;8.798;2022-07-23T06:22:39;15.70;99.90
24384;DHT22;12504;52.870;8.798;2022-07-23T06:25:06;15.80;99.90
24384;DHT22;12504;52.870;8.798;2022-07-23T06:27:32;15.90;99.90
24384;DHT22;12504;52.870;8.798;2022-07-23T06:29:58;16.00;99.90
24384;DHT22;12504;52.870;8.798;2022-07-23T06:32:23;16.20;99.90
24384;DHT22;12504;52.870;8.798;2022-07-23T06:34:49;16.30;99.90
24384;DHT22;12504;52.870;8.798;2022-07-23T06:37:15;16.50;99.90
24384;DHT22;12504;52.870;8.798;2022-07-23T06:39:41;16.60;99.90
24384;DHT22;12504;52.870;8.798;2022-07-23T06:42:07;16.70;99.90
24384;DHT22;12504;52.870;8.798;2022-07-23T06:44:41;16.70;99.90
24384;DHT22;12504;52.870;8.798;2022-07-23T06:47:07;16.80;99.90
24384;DHT22;12504;52.870;8.798;2022-07-23T06:49:33;16.80;99.90
24384;DHT22;12504;52.870;8.798;2022-07-23T06:52:00;17.00;99.90
24384;DHT22;12504;52.870;8.798;2022-07-23T06:54:25;17.00;99.90
24384;DHT22;12504;52.870;8.798;2022-07-23T06:56:51;17.20;99.90
24384;DHT22;12504;52.870;8.798;2022-07-23T06:59:17;17.30;99.90
24384;DHT22;12504;52.870;8.798;2022-07-23T07:01:42;17.10;99.90
24384;DHT22;12504;52.870;8.798;2022-07-23T07:04:08;17.00;99.90
24384;DHT22;12504;52.870;8.798;2022-07-23T07:06:34;16.90;99.90
24384;DHT22;12504;52.870;8.798;2022-07-23T07:09:00;17.00;99.90
24384;DHT22;12504;52.870;8.798;2022-07-23T07:11:26;16.90;99.90
24384;DHT22;12504;52.870;8.798;2022-07-23T07:13:51;16.80;99.90
24384;DHT22;12504;52.870;8.798;2022-07-23T07:16:17;16.80;99.90
24384;DHT22;12504;52.870;8.798;2022-07-23T07:18:43;16.90;99.90
24384;DHT22;12504;52.870;8.798;2022-07-23T07:21:08;17.10;99.90
24384;DHT22;12504;52.870;8.798;2022-07-23T07:23:34;17.10;99.90
24384;DHT22;12504;52.870;8.798;2022-07-23T07:25:59;17.00;99.90
24384;DHT22;12504;52.870;8.798;2022-07-23T07:28:25;17.00;99.90
24384;DHT22;12504;52.870;8.798;2022-07-23T07:30:51;17.20;99.90
24384;DHT22;12504;52.870;8.798;2022-07-23T07:33:17;17.40;99.90
24384;DHT22;12504;52.870;8.798;2022-07-23T07:35:42;17.50;99.90
24384;DHT22;12504;52.870;8.798;2022-07-23T07:38:08;17.50;99.90
24384;DHT22;12504;52.870;8.798;2022-07-23T07:40:34;17.40;99.90
24384;DHT22;12504;52.870;8.798;2022-07-23T07:43:00;17.40;99.90
24384;DHT22;12504;52.870;8.798;2022-07-23T07:45:27;17.60;99.90
24384;DHT22;12504;52.870;8.798;2022-07-23T07:47:52;17.90;97.60
24384;DHT22;12504;52.870;8.798;2022-07-23T07:50:20;18.10;91.70
24384;DHT22;12504;52.870;8.798;2022-07-23T07:52:45;18.10;84.10
24384;DHT22;12504;52.870;8.798;2022-07-23T07:55:12;18.10;89.50
24384;DHT22;12504;52.870;8.798;2022-07-23T07:57:38;17.90;92.90
24384;DHT22;12504;52.870;8.798;2022-07-23T08:00:05;17.70;89.30
24384;DHT22;12504;52.870;8.798;2022-07-23T08:02:45;17.70;86.20
24384;DHT22;12504;52.870;8.798;2022-07-23T08:05:12;18.00;90.40
24384;DHT22;12504;52.870;8.798;2022-07-23T08:07:38;18.10;88.00
24384;DHT22;12504;52.870;8.798;2022-07-23T08:10:08;18.30;65.30
24384;DHT22;12504;52.870;8.798;2022-07-23T08:12:45;18.20;56.60
24384;DHT22;12504;52.870;8.798;2022-07-23T08:15:15;18.10;64.70
24384;DHT22;12504;52.870;8.798;2022-07-23T08:17:42;18.10;66.80
24384;DHT22;12504;52.870;8.798;2022-07-23T08:20:09;18.30;45.20
24384;DHT22;12504;52.870;8.798;2022-07-23T08:25:15;18.50;1.00
24384;DHT22;12504;52.870;8.798;2022-07-23T08:27:41;18.60;1.00
24384;DHT22;12504;52.870;8.798;2022-07-23T08:30:08;18.60;1.00
24384;DHT22;12504;52.870;8.798;2022-07-23T08:32:51;18.80;1.00
24384;DHT22;12504;52.870;8.798;2022-07-23T08:35:18;19.00;1.00
24384;DHT22;12504;52.870;8.798;2022-07-23T08:37:46;19.10;1.00
24384;DHT22;12504;52.870;8.798;2022-07-23T08:40:12;18.90;1.00
24384;DHT22;12504;52.870;8.798;2022-07-23T08:42:37;18.70;1.00
24384;DHT22;12504;52.870;8.798;2022-07-23T08:45:03;18.60;1.00
24384;DHT22;12504;52.870;8.798;2022-07-23T08:47:30;18.50;1.00
24384;DHT22;12504;52.870;8.798;2022-07-23T08:49:58;18.90;1.00
24384;DHT22;12504;52.870;8.798;2022-07-23T08:52:25;19.10;1.00
24384;DHT22;12504;52.870;8.798;2022-07-23T08:54:51;19.30;1.00
24384;DHT22;12504;52.870;8.798;2022-07-23T08:57:18;19.20;1.00
24384;DHT22;12504;52.870;8.798;2022-07-23T08:59:44;19.10;1.00
24384;DHT22;12504;52.870;8.798;2022-07-23T09:02:09;19.10;1.00
24384;DHT22;12504;52.870;8.798;2022-07-23T09:04:36;19.10;1.00
24384;DHT22;12504;52.870;8.798;2022-07-23T09:07:02;19.20;1.00
24384;DHT22;12504;52.870;8.798;2022-07-23T09:09:28;19.40;1.00
24384;DHT22;12504;52.870;8.798;2022-07-23T09:12:03;19.50;1.00
24384;DHT22;12504;52.870;8.798;2022-07-23T09:14:40;19.40;1.00
24384;DHT22;12504;52.870;8.798;2022-07-23T09:17:14;19.50;1.00
24384;DHT22;12504;52.870;8.798;2022-07-23T09:19:42;19.70;1.00
24384;DHT22;12504;52.870;8.798;2022-07-23T09:22:27;19.90;1.00
24384;DHT22;12504;52.870;8.798;2022-07-23T09:25:25;20.00;1.00
24384;DHT22;12504;52.870;8.798;2022-07-23T09:27:57;20.20;1.00
24384;DHT22;12504;52.870;8.798;2022-07-23T09:30:27;20.00;1.00
24384;DHT22;12504;52.870;8.798;2022-07-23T09:33:11;19.80;1.00
24384;DHT22;12504;52.870;8.798;2022-07-23T09:35:54;19.40;1.00
24384;DHT22;12504;52.870;8.798;2022-07-23T09:38:22;19.30;1.00
24384;DHT22;12504;52.870;8.798;2022-07-23T09:41:11;19.50;1.00
24384;DHT22;12504;52.870;8.798;2022-07-23T09:43:38;20.00;1.00
24384;DHT22;12504;52.870;8.798;2022-07-23T09:46:36;20.30;1.00
24384;DHT22;12504;52.870;8.798;2022-07-23T09:49:31;20.50;1.00
24384;DHT22;12504;52.870;8.798;2022-07-23T09:51:59;20.30;1.00
24384;DHT22;12504;52.870;8.798;2022-07-23T09:54:38;20.20;1.00
24384;DHT22;12504;52.870;8.798;2022-07-23T09:57:10;20.20;1.00
24384;DHT22;12504;52.870;8.798;2022-07-23T09:59:40;20.10;1.00
24384;DHT22;12504;52.870;8.798;2022-07-23T10:02:08;19.90;1.00
24384;DHT22;12504;52.870;8.798;2022-07-23T10:04:48;19.90;1.00
24384;DHT22;12504;52.870;8.798;2022-07-23T10:07:26;20.00;1.00
24384;DHT22;12504;52.870;8.798;2022-07-23T10:10:11;20.10;1.00
24384;DHT22;12504;52.870;8.798;2022-07-23T10:13:02;20.50;1.00
24384;DHT22;12504;52.870;8.798;2022-07-23T10:15:59;20.40;99.90
24384;DHT22;12504;52.870;8.798;2022-07-23T10:18:25;20.40;99.90
24384;DHT22;12504;52.870;8.798;2022-07-23T10:20:51;20.70;99.90
24384;DHT22;12504;52.870;8.798;2022-07-23T10:23:31;21.00;99.90
24384;DHT22;12504;52.870;8.798;2022-07-23T10:26:12;21.20;99.90
24384;DHT22;12504;52.870;8.798;2022-07-23T10:31:35;20.60;99.90
24384;DHT22;12504;52.870;8.798;2022-07-23T10:34:25;20.40;99.90
24384;DHT22;12504;52.870;8.798;2022-07-23T10:37:17;20.60;99.90
24384;DHT22;12504;52.870;8.798;2022-07-23T10:40:16;20.80;99.90
24384;DHT22;12504;52.870;8.798;2022-07-23T10:42:47;21.10;99.90
24384;DHT22;12504;52.870;8.798;2022-07-23T10:45:26;21.50;55.70
24384;DHT22;12504;52.870;8.798;2022-07-23T10:47:53;21.70;1.00
24384;DHT22;12504;52.870;8.798;2022-07-23T10:50:25;21.90;1.00
24384;DHT22;12504;52.870;8.798;2022-07-23T10:53:10;21.60;1.00
24384;DHT22;12504;52.870;8.798;2022-07-23T10:55:41;21.60;1.00
24384;DHT22;12504;52.870;8.798;2022-07-23T10:58:07;21.40;1.00
24384;DHT22;12504;52.870;8.798;2022-07-23T11:00:35;21.50;9.70
24384;DHT22;12504;52.870;8.798;2022-07-23T11:03:06;21.90;1.00
24384;DHT22;12504;52.870;8.798;2022-07-23T11:05:48;23.20;1.00
24384;DHT22;12504;52.870;8.798;2022-07-23T11:08:18;24.60;99.90
24384;DHT22;12504;52.870;8.798;2022-07-23T11:10:46;25.50;99.90
24384;DHT22;12504;52.870;8.798;2022-07-23T11:16:05;26.70;99.90
24384;DHT22;12504;52.870;8.798;2022-07-23T11:24:07;27.60;1.00
24384;DHT22;12504;52.870;8.798;2022-07-23T11:27:01;26.50;1.00
24384;DHT22;12504;52.870;8.798;2022-07-23T11:34:31;23.90;14.20
24384;DHT22;12504;52.870;8.798;2022-07-23T11:36:58;23.70;93.60
24384;DHT22;12504;52.870;8.798;2022-07-23T11:39:26;23.60;99.90
24384;DHT22;12504;52.870;8.798;2022-07-23T11:41:52;24.30;95.30
24384;DHT22;12504;52.870;8.798;2022-07-23T11:44:29;25.70;1.00
24384;DHT22;12504;52.870;8.798;2022-07-23T11:47:00;25.70;1.00
24384;DHT22;12504;52.870;8.798;2022-07-23T11:49:26;26.30;1.00
24384;DHT22;12504;52.870;8.798;2022-07-23T11:52:09;27.20;1.00
24384;DHT22;12504;52.870;8.798;2022-07-23T11:54:46;27.80;1.00
24384;DHT22;12504;52.870;8.798;2022-07-23T11:57:12;27.90;99.90
24384;DHT22;12504;52.870;8.798;2022-07-23T11:59:39;28.00;99.90
24384;DHT22;12504;52.870;8.798;2022-07-23T12:02:06;28.10;99.90
24384;DHT22;12504;52.870;8.798;2022-07-23T12:07:32;28.90;42.10
24384;DHT22;12504;52.870;8.798;2022-07-23T12:12:35;27.00;35.00
24384;DHT22;12504;52.870;8.798;2022-07-23T12:15:01;27.50;54.30
24384;DHT22;12504;52.870;8.798;2022-07-23T12:17:30;27.50;7.20
24384;DHT22;12504;52.870;8.798;2022-07-23T12:19:58;27.30;56.80
24384;DHT22;12504;52.870;8.798;2022-07-23T12:22:26;27.80;16.60
24384;DHT22;12504;52.870;8.798;2022-07-23T12:25:01;28.20;1.00
24384;DHT22;12504;52.870;8.798;2022-07-23T12:27:28;28.90;1.00
24384;DHT22;12504;52.870;8.798;2022-07-23T12:29:54;29.30;1.00
24384;DHT22;12504;52.870;8.798;2022-07-23T12:32:23;30.20;1.00
24384;DHT22;12504;52.870;8.798;2022-07-23T12:35:11;30.40;1.00
24384;DHT22;12504;52.870;8.798;2022-07-23T12:37:38;29.40;99.90
24384;DHT22;12504;52.870;8.798;2022-07-23T12:40:29;27.50;99.90
24384;DHT22;12504;52.870;8.798;2022-07-23T12:43:25;26.20;99.90
24384;DHT22;12504;52.870;8.798;2022-07-23T12:45:53;24.80;1.00
24384;DHT22;12504;52.870;8.798;2022-07-23T12:48:27;24.20;1.00
24384;DHT22;12504;52.870;8.798;2022-07-23T12:51:00;24.20;61.60
24384;DHT22;12504;52.870;8.798;2022-07-23T12:56:06;26.10;1.00
24384;DHT22;12504;52.870;8.798;2022-07-23T12:58:54;26.70;1.00
24384;DHT22;12504;52.870;8.798;2022-07-23T13:03:56;27.20;1.00
24384;DHT22;12504;52.870;8.798;2022-07-23T13:06:23;28.00;1.00
24384;DHT22;12504;52.870;8.798;2022-07-23T13:08:48;27.90;1.00
24384;DHT22;12504;52.870;8.798;2022-07-23T13:11:14;28.00;1.00
24384;DHT22;12504;52.870;8.798;2022-07-23T13:13:41;27.30;99.90
24384;DHT22;12504;52.870;8.798;2022-07-23T13:16:07;26.70;99.90
24384;DHT22;12504;52.870;8.798;2022-07-23T13:18:33;26.40;99.90
24384;DHT22;12504;52.870;8.798;2022-07-23T13:20:58;26.40;1.00
24384;DHT22;12504;52.870;8.798;2022-07-23T13:23:24;25.90;1.00
24384;DHT22;12504;52.870;8.798;2022-07-23T13:25:51;26.50;1.00
24384;DHT22;12504;52.870;8.798;2022-07-23T13:28:18;26.20;1.00
24384;DHT22;12504;52.870;8.798;2022-07-23T13:30:44;25.50;99.90
24384;DHT22;12504;52.870;8.798;2022-07-23T13:33:10;25.30;1.00
24384;DHT22;12504;52.870;8.798;2022-07-23T13:35:36;24.70;1.00
24384;DHT22;12504;52.870;8.798;2022-07-23T13:38:04;24.20;1.00
24384;DHT22;12504;52.870;8.798;2022-07-23T13:40:30;24.10;1.00
24384;DHT22;12504;52.870;8.798;2022-07-23T13:42:56;24.30;1.00
24384;DHT22;12504;52.870;8.798;2022-07-23T13:45:21;23.90;1.00
24384;DHT22;12504;52.870;8.798;2022-07-23T13:47:47;24.20;1.00
24384;DHT22;12504;52.870;8.798;2022-07-23T13:50:13;24.80;1.00
24384;DHT22;12504;52.870;8.798;2022-07-23T13:52:42;25.40;1.00
24384;DHT22;12504;52.870;8.798;2022-07-23T13:55:07;26.10;1.00
24384;DHT22;12504;52.870;8.798;2022-07-23T13:57:33;26.50;1.00
24384;DHT22;12504;52.870;8.798;2022-07-23T13:59:59;26.60;1.00
24384;DHT22;12504;52.870;8.798;2022-07-23T14:02:25;27.10;1.00
24384;DHT22;12504;52.870;8.798;2022-07-23T14:04:51;26.80;1.00
24384;DHT22;12504;52.870;8.798;2022-07-23T14:07:17;27.00;1.00
24384;DHT22;12504;52.870;8.798;2022-07-23T14:09:43;26.70;1.00
24384;DHT22;12504;52.870;8.798;2022-07-23T14:12:09;26.70;1.00
24384;DHT22;12504;52.870;8.798;2022-07-23T14:14:35;26.60;1.00
24384;DHT22;12504;52.870;8.798;2022-07-23T14:17:01;26.40;1.00
24384;DHT22;12504;52.870;8.798;2022-07-23T14:19:27;26.50;1.00
24384;DHT22;12504;52.870;8.798;2022-07-23T14:21:53;26.70;1.00
24384;DHT22;12504;52.870;8.798;2022-07-23T14:24:19;27.00;1.00
24384;DHT22;12504;52.870;8.798;2022-07-23T14:26:45;26.80;1.00
24384;DHT22;12504;52.870;8.798;2022-07-23T14:29:12;26.70;1.00
24384;DHT22;12504;52.870;8.798;2022-07-23T14:31:37;26.60;1.00
24384;DHT22;12504;52.870;8.798;2022-07-23T14:34:03;26.50;1.00
24384;DHT22;12504;52.870;8.798;2022-07-23T14:36:29;26.50;1.00
24384;DHT22;12504;52.870;8.798;2022-07-23T14:38:55;26.20;99.90
24384;DHT22;12504;52.870;8.798;2022-07-23T14:41:21;26.20;99.90
24384;DHT22;12504;52.870;8.798;2022-07-23T14:43:46;26.50;99.90
24384;DHT22;12504;52.870;8.798;2022-07-23T14:46:12;27.00;1.00
24384;DHT22;12504;52.870;8.798;2022-07-23T14:48:38;27.00;99.90
24384;DHT22;12504;52.870;8.798;2022-07-23T14:51:04;26.50;99.90
24384;DHT22;12504;52.870;8.798;2022-07-23T14:53:30;25.70;99.90
24384;DHT22;12504;52.870;8.798;2022-07-23T14:55:56;25.70;99.90
24384;DHT22;12504;52.870;8.798;2022-07-23T14:58:23;25.90;99.90
24384;DHT22;12504;52.870;8.798;2022-07-23T15:00:50;26.20;99.90
24384;DHT22;12504;52.870;8.798;2022-07-23T15:03:15;26.10;99.90
24384;DHT22;12504;52.870;8.798;2022-07-23T15:05:41;26.20;99.90
24384;DHT22;12504;52.870;8.798;2022-07-23T15:08:07;25.90;99.90
24384;DHT22;12504;52.870;8.798;2022-07-23T15:10:32;25.60;99.90
24384;DHT22;12504;52.870;8.798;2022-07-23T15:12:58;25.40;99.90
24384;DHT22;12504;52.870;8.798;2022-07-23T15:15:24;24.80;99.90
24384;DHT22;12504;52.870;8.798;2022-07-23T15:17:49;24.00;99.90
24384;DHT22;12504;52.870;8.798;2022-07-23T15:20:15;23.60;1.00
24384;DHT22;12504;52.870;8.798;2022-07-23T15:22:41;23.20;1.00
24384;DHT22;12504;52.870;8.798;2022-07-23T15:25:07;23.30;1.00
24384;DHT22;12504;52.870;8.798;2022-07-23T15:27:33;23.70;1.00
24384;DHT22;12504;52.870;8.798;2022-07-23T15:29:59;24.10;1.00
24384;DHT22;12504;52.870;8.798;2022-07-23T15:32:24;24.70;1.00
24384;DHT22;12504;52.870;8.798;2022-07-23T15:34:53;24.80;1.00
24384;DHT22;12504;52.870;8.798;2022-07-23T15:37:18;25.00;1.00
24384;DHT22;12504;52.870;8.798;2022-07-23T15:39:44;25.20;1.00
24384;DHT22;12504;52.870;8.798;2022-07-23T15:42:10;25.70;1.00
24384;DHT22;12504;52.870;8.798;2022-07-23T15:44:35;25.90;1.00
24384;DHT22;12504;52.870;8.798;2022-07-23T15:47:01;25.50;1.00
24384;DHT22;12504;52.870;8.798;2022-07-23T15:49:27;25.40;1.00
24384;DHT22;12504;52.870;8.798;2022-07-23T15:51:54;25.30;1.00
24384;DHT22;12504;52.870;8.798;2022-07-23T15:54:21;25.20;1.00
24384;DHT22;12504;52.870;8.798;2022-07-23T15:56:47;25.00;1.00
24384;DHT22;12504;52.870;8.798;2022-07-23T15:59:13;24.70;1.00
24384;DHT22;12504;52.870;8.798;2022-07-23T16:01:38;24.80;1.00
24384;DHT22;12504;52.870;8.798;2022-07-23T16:04:04;25.20;1.00
24384;DHT22;12504;52.870;8.798;2022-07-23T16:06:32;24.60;1.00
24384;DHT22;12504;52.870;8.798;2022-07-23T16:08:58;24.40;1.00
24384;DHT22;12504;52.870;8.798;2022-07-23T16:11:25;24.70;1.00